Time;durP1;ratioP1;P1;durP2;ratioP2;P2;SDS_P1;SDS_P2;PMS_P1;PMS_P2;Temp;Humidity;BMP_temperature;BMP_pressure;BME280_temperature;BME280_humidity;BME280_pressure;Samples;Min_cycle;Max_cycle;Signal;HPM_P1;HPM_P2
2022/01/10 00:00:00;;;;;;;24.25;4.70;;;;;;;;;;5095070;28;20047;-84
2022/01/10 00:02:27;;;;;;;17.83;4.20;;;;;;;;;;5096106;28;20036;-85
2022/01/10 00:04:53;;;;;;;11.38;3.53;;;;;;;;;;5094669;28;20085;-84
2022/01/10 00:07:19;;;;;;;19.40;4.45;;;;;;;;;;5077714;28;20043;-84
2022/01/10 00:09:45;;;;;;;21.27;4.35;;;;;;;;;;5096183;28;20036;-84
2022/01/10 00:12:11;;;;;;;15.35;3.90;;;;;;;;;;5095644;28;20475;-84
2022/01/10 00:14:37;;;;;;;19.70;4.43;;;;;;;;;;5094783;28;20386;-85
2022/01/10 00:17:04;;;;;;;13.73;4.05;;;;;;;;;;5094265;28;20040;-84
2022/01/10 00:19:30;;;;;;;16.13;3.80;;;;;;;;;;5094695;28;20071;-84
2022/01/10 00:21:56;;;;;;;17.02;4.03;;;;;;;;;;5095583;28;20484;-85
2022/01/10 00:24:22;;;;;;;15.35;4.30;;;;;;;;;;5095535;28;20040;-84
2022/01/10 00:26:48;;;;;;;15.88;3.88;;;;;;;;;;5094071;28;20044;-85
2022/01/10 00:29:14;;;;;;;17.08;3.88;;;;;;;;;;5094306;28;20040;-85
2022/01/10 00:31:40;;;;;;;15.82;4.00;;;;;;;;;;5093945;28;20554;-84
2022/01/10 00:34:06;;;;;;;15.80;3.92;;;;;;;;;;5094183;28;20071;-84
2022/01/10 00:36:32;;;;;;;18.75;3.63;;;;;;;;;;5094005;28;20098;-85
2022/01/10 00:38:58;;;;;;;21.13;4.00;;;;;;;;;;5094018;28;20051;-85
2022/01/10 00:41:24;;;;;;;18.33;4.72;;;;;;;;;;5095070;28;20032;-85
2022/01/10 00:43:51;;;;;;;18.20;3.78;;;;;;;;;;5093848;28;20476;-84
2022/01/10 00:46:18;;;;;;;18.88;3.72;;;;;;;;;;5094957;28;20044;-85
2022/01/10 00:48:44;;;;;;;13.43;4.22;;;;;;;;;;5095146;28;20040;-85
2022/01/10 00:51:10;;;;;;;14.57;2.95;;;;;;;;;;5095082;28;20047;-84
2022/01/10 00:53:36;;;;;;;17.05;3.90;;;;;;;;;;5095020;28;20502;-84
2022/01/10 00:56:03;;;;;;;13.40;3.60;;;;;;;;;;5093547;28;20050;-84
2022/01/10 00:58:29;;;;;;;17.27;4.00;;;;;;;;;;5093678;28;20047;-84
2022/01/10 01:00:55;;;;;;;16.27;3.95;;;;;;;;;;5093353;28;20035;-84
2022/01/10 01:03:21;;;;;;;12.30;3.90;;;;;;;;;;5094872;28;20059;-84
2022/01/10 01:05:47;;;;;;;14.07;4.05;;;;;;;;;;5076716;28;20483;-85
2022/01/10 01:08:13;;;;;;;16.13;4.85;;;;;;;;;;5093460;28;20044;-85
2022/01/10 01:13:36;;;;;;;9.93;3.40;;;;;;;;;;5094590;28;20040;-85
2022/01/10 01:24:17;;;;;;;16.30;4.13;;;;;;;;;;5092170;28;20040;-84
2022/01/10 01:26:44;;;;;;;16.23;4.45;;;;;;;;;;5089015;28;20056;-85
2022/01/10 01:29:12;;;;;;;14.13;3.90;;;;;;;;;;5094419;28;20456;-84
2022/01/10 01:31:38;;;;;;;16.67;4.13;;;;;;;;;;5094335;28;20036;-85
2022/01/10 01:34:04;;;;;;;17.13;4.22;;;;;;;;;;5094462;28;20036;-85
2022/01/10 01:36:32;;;;;;;12.60;4.22;;;;;;;;;;5093879;28;20060;-85
2022/01/10 01:38:58;;;;;;;13.90;4.38;;;;;;;;;;5094439;28;20119;-83
2022/01/10 01:43:54;;;;;;;16.33;4.07;;;;;;;;;;5093883;28;20040;-84
2022/01/10 01:46:20;;;;;;;17.13;4.35;;;;;;;;;;5092919;28;20075;-85
2022/01/10 01:48:47;;;;;;;14.05;4.15;;;;;;;;;;5092585;28;20040;-85
2022/01/10 01:51:13;;;;;;;14.90;3.53;;;;;;;;;;5076197;28;20499;-84
2022/01/10 01:53:39;;;;;;;14.82;4.43;;;;;;;;;;5092458;28;20046;-84
2022/01/10 01:56:06;;;;;;;13.40;3.90;;;;;;;;;;5094010;28;20040;-84
2022/01/10 01:58:33;;;;;;;17.15;4.05;;;;;;;;;;5092491;28;20475;-84
2022/01/10 02:00:59;;;;;;;14.90;3.50;;;;;;;;;;5092488;28;20040;-84
2022/01/10 02:03:25;;;;;;;14.38;3.92;;;;;;;;;;5092131;28;20040;-84
2022/01/10 02:05:51;;;;;;;16.88;4.40;;;;;;;;;;5093881;28;20105;-84
2022/01/10 02:08:17;;;;;;;13.48;4.10;;;;;;;;;;5093547;28;20042;-84
2022/01/10 02:10:43;;;;;;;16.48;3.92;;;;;;;;;;5092357;28;20047;-85
2022/01/10 02:13:09;;;;;;;18.67;4.00;;;;;;;;;;5091911;28;20395;-84
2022/01/10 02:16:00;;;;;;;14.68;3.95;;;;;;;;;;5092198;28;20047;-84
2022/01/10 02:18:22;;;;;;;15.93;4.13;;;;;;;;;;5091844;28;20120;-85
2022/01/10 02:20:48;;;;;;;14.80;3.80;;;;;;;;;;5093661;28;20092;-84
2022/01/10 02:23:16;;;;;;;12.95;3.95;;;;;;;;;;5092015;28;20129;-85
2022/01/10 02:25:42;;;;;;;13.80;4.15;;;;;;;;;;5091996;28;20060;-84
2022/01/10 02:28:09;;;;;;;17.42;4.47;;;;;;;;;;5092156;28;20059;-85
2022/01/10 02:30:35;;;;;;;13.05;4.38;;;;;;;;;;5093234;28;20039;-84
2022/01/10 02:33:01;;;;;;;16.42;4.15;;;;;;;;;;5092043;28;20475;-86
2022/01/10 02:35:30;;;;;;;16.00;3.95;;;;;;;;;;5091729;28;20036;-84
2022/01/10 02:37:57;;;;;;;16.40;4.43;;;;;;;;;;5092869;28;20044;-85
2022/01/10 02:40:25;;;;;;;14.90;4.68;;;;;;;;;;5092182;28;20396;-84
2022/01/10 02:42:51;;;;;;;13.63;4.05;;;;;;;;;;5092763;28;20066;-85
2022/01/10 02:45:18;;;;;;;17.13;4.07;;;;;;;;;;5092072;28;20040;-84
2022/01/10 02:47:44;;;;;;;16.85;4.10;;;;;;;;;;5091750;28;20433;-84
2022/01/10 02:50:11;;;;;;;16.48;4.60;;;;;;;;;;5093282;28;20451;-85
2022/01/10 02:52:37;;;;;;;13.57;4.13;;;;;;;;;;5093513;28;20051;-85
2022/01/10 02:55:05;;;;;;;14.10;4.13;;;;;;;;;;5091946;28;20051;-85
2022/01/10 02:57:31;;;;;;;12.68;4.20;;;;;;;;;;5091434;28;20040;-83
2022/01/10 02:59:58;;;;;;;16.38;4.38;;;;;;;;;;5091188;28;20494;-85
2022/01/10 03:02:29;;;;;;;19.30;5.10;;;;;;;;;;5091382;28;20040;-86
2022/01/10 03:04:55;;;;;;;12.43;4.32;;;;;;;;;;5091558;28;20067;-84
2022/01/10 03:07:24;;;;;;;15.55;5.00;;;;;;;;;;5091294;28;20496;-84
2022/01/10 03:09:53;;;;;;;9.82;4.18;;;;;;;;;;5091538;28;20048;-85
2022/01/10 03:12:19;;;;;;;14.85;4.90;;;;;;;;;;5074480;28;20040;-84
2022/01/10 03:14:46;;;;;;;19.92;4.65;;;;;;;;;;5092896;28;20040;-85
2022/01/10 03:17:12;;;;;;;15.20;4.38;;;;;;;;;;5091162;28;20055;-84
2022/01/10 03:19:39;;;;;;;13.20;4.57;;;;;;;;;;5091331;28;20044;-84
2022/01/10 03:22:05;;;;;;;15.32;5.30;;;;;;;;;;5092890;28;20066;-86
2022/01/10 03:24:31;;;;;;;14.02;4.63;;;;;;;;;;5091342;28;20379;-84
2022/01/10 03:26:57;;;;;;;15.77;4.97;;;;;;;;;;5091316;28;20043;-84
2022/01/10 03:29:23;;;;;;;13.43;5.22;;;;;;;;;;5074450;28;20044;-85
2022/01/10 03:31:49;;;;;;;12.65;5.25;;;;;;;;;;5092783;28;20069;-85
2022/01/10 03:34:15;;;;;;;17.02;5.13;;;;;;;;;;5090981;28;20040;-85
2022/01/10 03:36:42;;;;;;;14.80;5.47;;;;;;;;;;5092382;28;20064;-85
2022/01/10 03:39:08;;;;;;;19.67;5.47;;;;;;;;;;5092452;28;20111;-85
2022/01/10 03:41:35;;;;;;;15.50;6.07;;;;;;;;;;5092757;28;20048;-85
2022/01/10 03:44:02;;;;;;;19.17;6.78;;;;;;;;;;5092188;28;20040;-85
2022/01/10 03:46:28;;;;;;;15.60;6.18;;;;;;;;;;5091449;28;20123;-84
2022/01/10 03:48:54;;;;;;;14.32;5.82;;;;;;;;;;5090890;28;20052;-85
2022/01/10 03:51:20;;;;;;;16.13;6.15;;;;;;;;;;5091110;28;20048;-84
2022/01/10 03:53:46;;;;;;;16.65;6.28;;;;;;;;;;5092351;28;20380;-84
2022/01/10 03:56:12;;;;;;;17.10;6.65;;;;;;;;;;5091298;28;20246;-85
2022/01/10 03:58:38;;;;;;;20.90;7.30;;;;;;;;;;5092337;28;20196;-84
2022/01/10 04:01:05;;;;;;;20.60;6.72;;;;;;;;;;5092564;28;20032;-84
2022/01/10 04:03:32;;;;;;;19.30;7.30;;;;;;;;;;5092165;28;20111;-84
2022/01/10 04:05:58;;;;;;;22.05;6.90;;;;;;;;;;5091293;28;20111;-85
2022/01/10 04:08:24;;;;;;;21.40;8.30;;;;;;;;;;5090744;28;20040;-85
2022/01/10 04:10:51;;;;;;;16.73;7.95;;;;;;;;;;5092447;28;20044;-84
2022/01/10 04:13:17;;;;;;;18.48;7.60;;;;;;;;;;5095024;28;20074;-84
2022/01/10 04:15:43;;;;;;;17.67;7.22;;;;;;;;;;5095920;28;20048;-84
2022/01/10 04:18:09;;;;;;;22.10;7.82;;;;;;;;;;5095607;28;20036;-84
2022/01/10 04:20:35;;;;;;;21.20;7.63;;;;;;;;;;5095931;28;20471;-84
2022/01/10 04:23:01;;;;;;;21.08;8.05;;;;;;;;;;5094122;28;20112;-84
2022/01/10 04:25:27;;;;;;;22.88;7.28;;;;;;;;;;5094371;28;20079;-85
2022/01/10 04:27:53;;;;;;;18.48;8.07;;;;;;;;;;5094254;28;20044;-84
2022/01/10 04:30:19;;;;;;;17.23;7.22;;;;;;;;;;5094369;28;20035;-84
2022/01/10 04:32:45;;;;;;;18.38;7.43;;;;;;;;;;5096507;28;20036;-85
2022/01/10 04:35:12;;;;;;;21.15;8.25;;;;;;;;;;5095216;28;20077;-84
2022/01/10 04:37:38;;;;;;;16.83;7.53;;;;;;;;;;5093857;28;20470;-85
2022/01/10 04:40:04;;;;;;;21.02;8.10;;;;;;;;;;5095346;28;20028;-84
2022/01/10 04:42:30;;;;;;;18.33;7.78;;;;;;;;;;5095503;28;20040;-85
2022/01/10 04:44:56;;;;;;;20.08;8.05;;;;;;;;;;5094884;28;20032;-85
2022/01/10 04:47:22;;;;;;;26.70;9.13;;;;;;;;;;5095330;28;20044;-85
2022/01/10 04:52:27;;;;;;;21.13;8.38;;;;;;;;;;5094136;28;20059;-84
2022/01/10 04:54:53;;;;;;;16.38;7.95;;;;;;;;;;5093475;28;20048;-84
2022/01/10 04:57:19;;;;;;;22.27;8.15;;;;;;;;;;5094930;28;20051;-84
2022/01/10 04:59:45;;;;;;;24.30;8.80;;;;;;;;;;5093495;28;20043;-84
2022/01/10 05:02:11;;;;;;;24.80;8.85;;;;;;;;;;5093918;28;20498;-84
2022/01/10 05:04:37;;;;;;;20.58;8.35;;;;;;;;;;5094580;28;20032;-84
2022/01/10 05:07:03;;;;;;;20.73;8.88;;;;;;;;;;5093822;28;20051;-85
2022/01/10 05:09:29;;;;;;;20.30;8.60;;;;;;;;;;5093326;28;20475;-85
2022/01/10 05:11:56;;;;;;;16.33;8.27;;;;;;;;;;5093800;28;20057;-85
2022/01/10 05:14:22;;;;;;;18.58;8.80;;;;;;;;;;5093036;28;20082;-85
2022/01/10 05:16:49;;;;;;;20.38;9.55;;;;;;;;;;5093262;28;20044;-85
2022/01/10 05:19:15;;;;;;;24.77;9.32;;;;;;;;;;5094681;28;20048;-85
2022/01/10 05:21:41;;;;;;;19.05;9.57;;;;;;;;;;5093447;28;20043;-84
2022/01/10 05:24:07;;;;;;;26.95;10.20;;;;;;;;;;5092772;28;20043;-85
2022/01/10 05:26:34;;;;;;;23.58;9.02;;;;;;;;;;5094700;28;20051;-84
2022/01/10 05:29:01;;;;;;;24.50;9.15;;;;;;;;;;5092935;28;20130;-84
2022/01/10 05:31:28;;;;;;;20.63;9.43;;;;;;;;;;5076214;28;20065;-84
2022/01/10 05:33:54;;;;;;;23.23;9.50;;;;;;;;;;5076001;28;20464;-84
2022/01/10 05:36:20;;;;;;;20.00;9.45;;;;;;;;;;5092891;28;20505;-85
2022/01/10 05:38:46;;;;;;;20.98;9.25;;;;;;;;;;5092790;28;20039;-85
2022/01/10 05:41:12;;;;;;;21.55;9.32;;;;;;;;;;5092924;28;20044;-85
2022/01/10 05:43:38;;;;;;;18.13;9.68;;;;;;;;;;5092765;28;20044;-85
2022/01/10 05:46:09;;;;;;;19.38;8.85;;;;;;;;;;5094371;28;20124;-84
2022/01/10 05:48:36;;;;;;;19.20;9.02;;;;;;;;;;5094312;28;20040;-85
2022/01/10 05:51:02;;;;;;;23.13;8.65;;;;;;;;;;5092880;28;20047;-85
2022/01/10 05:53:28;;;;;;;22.58;9.07;;;;;;;;;;5092573;28;20085;-84
2022/01/10 05:55:55;;;;;;;21.15;9.65;;;;;;;;;;5092617;28;20122;-85
2022/01/10 05:58:21;;;;;;;20.17;9.48;;;;;;;;;;5092540;28;20093;-84
2022/01/10 06:00:47;;;;;;;17.58;8.60;;;;;;;;;;5093648;28;20047;-85
2022/01/10 06:03:13;;;;;;;20.70;8.73;;;;;;;;;;5092436;28;20363;-85
2022/01/10 06:05:39;;;;;;;25.42;9.77;;;;;;;;;;5093762;28;20123;-85
2022/01/10 06:08:06;;;;;;;22.60;9.30;;;;;;;;;;5092677;28;20076;-85
2022/01/10 06:10:32;;;;;;;15.70;8.77;;;;;;;;;;5091938;28;20097;-83
2022/01/10 06:12:59;;;;;;;17.70;9.35;;;;;;;;;;5092486;28;20048;-84
2022/01/10 06:15:25;;;;;;;19.63;10.10;;;;;;;;;;5093641;28;20123;-86
2022/01/10 06:17:51;;;;;;;21.50;9.55;;;;;;;;;;5093438;28;20047;-85
2022/01/10 06:20:17;;;;;;;18.42;8.85;;;;;;;;;;5093483;28;20042;-84
2022/01/10 06:22:43;;;;;;;19.02;9.35;;;;;;;;;;5093334;28;20036;-85
2022/01/10 06:25:11;;;;;;;24.95;9.65;;;;;;;;;;5092062;28;20542;-86
2022/01/10 06:27:36;;;;;;;16.52;9.10;;;;;;;;;;5092182;28;20054;-85
2022/01/10 06:30:04;;;;;;;20.75;9.32;;;;;;;;;;5091842;28;20399;-85
2022/01/10 06:32:30;;;;;;;18.20;9.13;;;;;;;;;;5091990;28;20131;-83
2022/01/10 06:34:57;;;;;;;21.20;10.48;;;;;;;;;;5092481;28;20119;-84
2022/01/10 06:37:23;;;;;;;18.77;8.77;;;;;;;;;;5093052;28;20102;-84
2022/01/10 06:39:49;;;;;;;16.95;8.50;;;;;;;;;;5092890;28;20036;-85
2022/01/10 06:42:15;;;;;;;19.23;8.88;;;;;;;;;;5093020;28;20115;-84
2022/01/10 06:44:41;;;;;;;17.10;8.80;;;;;;;;;;5091527;28;20048;-85
2022/01/10 06:47:07;;;;;;;19.90;9.57;;;;;;;;;;5091924;28;20109;-84
2022/01/10 06:49:33;;;;;;;20.27;9.27;;;;;;;;;;5091656;28;20048;-85
2022/01/10 06:51:59;;;;;;;20.30;10.32;;;;;;;;;;5093336;28;20044;-85
2022/01/10 06:54:26;;;;;;;22.17;11.38;;;;;;;;;;5091393;28;20076;-85
2022/01/10 06:56:52;;;;;;;26.02;10.13;;;;;;;;;;5069432;28;20044;-85
2022/01/10 06:59:19;;;;;;;21.13;10.70;;;;;;;;;;5068340;28;20040;-85
2022/01/10 07:01:46;;;;;;;23.25;10.48;;;;;;;;;;5069965;28;20071;-85
2022/01/10 07:04:12;;;;;;;19.10;10.38;;;;;;;;;;5088171;28;20128;-85
2022/01/10 07:06:40;;;;;;;20.75;9.52;;;;;;;;;;5089524;28;20075;-85
2022/01/10 07:09:07;;;;;;;20.02;11.48;;;;;;;;;;5074797;28;20055;-85
2022/01/10 07:11:33;;;;;;;16.98;9.77;;;;;;;;;;5087860;28;20039;-85
2022/01/10 07:13:59;;;;;;;18.08;10.05;;;;;;;;;;5071982;28;20127;-85
2022/01/10 07:16:25;;;;;;;26.33;11.82;;;;;;;;;;5070084;28;20044;-85
2022/01/10 07:18:51;;;;;;;17.38;10.68;;;;;;;;;;5073567;28;20720;-85
2022/01/10 07:21:17;;;;;;;15.40;8.98;;;;;;;;;;5093893;28;20040;-89
2022/01/10 07:23:43;;;;;;;15.07;8.82;;;;;;;;;;5089944;28;20085;-85
2022/01/10 07:26:09;;;;;;;15.63;8.32;;;;;;;;;;5089243;28;20044;-85
2022/01/10 07:28:35;;;;;;;16.35;9.27;;;;;;;;;;5079733;28;20130;-87
2022/01/10 07:31:01;;;;;;;17.42;9.50;;;;;;;;;;5070846;28;20442;-85
2022/01/10 07:33:27;;;;;;;19.15;9.15;;;;;;;;;;5087855;28;20044;-86
2022/01/10 07:35:53;;;;;;;21.58;10.70;;;;;;;;;;5087771;28;20056;-85
2022/01/10 07:38:20;;;;;;;22.25;11.13;;;;;;;;;;5088026;28;20128;-85
2022/01/10 07:40:46;;;;;;;17.58;10.40;;;;;;;;;;5085770;28;20259;-85
2022/01/10 07:43:12;;;;;;;24.52;13.15;;;;;;;;;;5088137;28;20564;-85
2022/01/10 07:45:38;;;;;;;18.88;10.80;;;;;;;;;;5079679;28;20044;-85
2022/01/10 07:48:04;;;;;;;22.13;11.57;;;;;;;;;;5073027;28;20119;-87
2022/01/10 07:50:30;;;;;;;18.30;10.70;;;;;;;;;;5079552;28;20041;-85
2022/01/10 07:52:56;;;;;;;23.77;12.40;;;;;;;;;;5091146;28;20052;-85
2022/01/10 07:55:23;;;;;;;21.77;12.68;;;;;;;;;;5075854;28;20098;-85
2022/01/10 07:57:49;;;;;;;22.83;12.95;;;;;;;;;;5072702;28;20449;-84
2022/01/10 08:00:15;;;;;;;26.45;13.30;;;;;;;;;;5072380;28;20040;-85
2022/01/10 08:02:41;;;;;;;25.60;12.80;;;;;;;;;;5083269;28;20126;-85
2022/01/10 08:05:09;;;;;;;22.13;13.25;;;;;;;;;;5094820;28;20087;-85
2022/01/10 08:07:35;;;;;;;20.77;12.13;;;;;;;;;;5094781;28;20051;-88
2022/01/10 08:10:01;;;;;;;24.65;13.02;;;;;;;;;;5096167;28;20093;-85
2022/01/10 08:12:27;;;;;;;25.27;14.15;;;;;;;;;;5094496;28;20051;-85
2022/01/10 08:14:53;;;;;;;24.67;13.68;;;;;;;;;;5094789;28;20051;-85
2022/01/10 08:17:19;;;;;;;25.30;13.45;;;;;;;;;;5094329;28;20471;-86
2022/01/10 08:19:45;;;;;;;26.45;14.52;;;;;;;;;;5094547;28;20040;-85
2022/01/10 08:22:11;;;;;;;25.20;13.68;;;;;;;;;;5095634;28;20036;-85
2022/01/10 08:24:37;;;;;;;21.33;12.88;;;;;;;;;;5094597;28;20044;-86
2022/01/10 08:27:03;;;;;;;21.95;13.15;;;;;;;;;;5095684;28;20475;-85
2022/01/10 08:29:29;;;;;;;24.20;13.35;;;;;;;;;;5095788;28;20392;-84
2022/01/10 08:31:55;;;;;;;28.98;14.20;;;;;;;;;;5094043;28;20043;-85
2022/01/10 08:34:23;;;;;;;23.20;13.57;;;;;;;;;;5095433;28;20503;-86
2022/01/10 08:36:50;;;;;;;24.95;13.98;;;;;;;;;;5076914;28;20059;-85
2022/01/10 08:39:19;;;;;;;22.63;12.65;;;;;;;;;;5095645;28;20114;-85
2022/01/10 08:41:45;;;;;;;22.05;12.95;;;;;;;;;;5093843;28;20043;-85
2022/01/10 08:44:14;;;;;;;24.80;14.18;;;;;;;;;;5095526;28;20418;-85
2022/01/10 08:46:40;;;;;;;23.13;13.50;;;;;;;;;;5093913;28;20050;-85
2022/01/10 08:49:06;;;;;;;22.20;12.80;;;;;;;;;;5093874;28;20054;-85
2022/01/10 08:51:34;;;;;;;23.05;13.25;;;;;;;;;;5093750;28;20044;-85
2022/01/10 08:54:01;;;;;;;24.63;15.00;;;;;;;;;;5076902;28;20047;-85
2022/01/10 08:56:27;;;;;;;25.73;14.55;;;;;;;;;;5093425;28;20073;-84
2022/01/10 08:58:53;;;;;;;25.63;14.80;;;;;;;;;;5093142;28;20071;-85
2022/01/10 09:01:20;;;;;;;25.67;15.05;;;;;;;;;;5093629;28;20079;-85
2022/01/10 09:03:46;;;;;;;28.20;15.55;;;;;;;;;;5076734;28;20040;-84
2022/01/10 09:06:12;;;;;;;28.50;14.93;;;;;;;;;;5093315;28;20040;-84
2022/01/10 09:08:39;;;;;;;21.60;14.13;;;;;;;;;;5093579;28;20072;-85
2022/01/10 09:11:05;;;;;;;24.40;14.52;;;;;;;;;;5093505;28;20050;-84
2022/01/10 09:13:32;;;;;;;25.38;15.35;;;;;;;;;;5093654;28;20387;-85
2022/01/10 09:15:58;;;;;;;25.00;14.27;;;;;;;;;;5093489;28;20040;-84
2022/01/10 09:18:24;;;;;;;27.30;14.60;;;;;;;;;;5094851;28;20036;-85
2022/01/10 09:20:52;;;;;;;29.40;14.55;;;;;;;;;;5093047;28;20048;-85
2022/01/10 09:23:18;;;;;;;28.92;15.75;;;;;;;;;;5094731;28;20051;-85
2022/01/10 09:25:45;;;;;;;26.20;15.23;;;;;;;;;;5093676;28;20317;-85
2022/01/10 09:28:11;;;;;;;24.60;14.65;;;;;;;;;;5094277;28;20043;-84
2022/01/10 09:30:37;;;;;;;28.17;15.40;;;;;;;;;;5093066;28;20047;-85
2022/01/10 09:33:03;;;;;;;23.75;13.52;;;;;;;;;;5093030;28;20413;-85
2022/01/10 09:35:29;;;;;;;31.05;16.15;;;;;;;;;;5075986;28;20101;-86
2022/01/10 09:37:55;;;;;;;26.65;15.70;;;;;;;;;;5092698;28;20467;-85
2022/01/10 09:40:22;;;;;;;27.20;16.38;;;;;;;;;;5094484;28;20122;-85
2022/01/10 09:42:48;;;;;;;25.33;15.00;;;;;;;;;;5092552;28;20093;-85
2022/01/10 09:45:14;;;;;;;23.42;14.85;;;;;;;;;;5092861;28;20044;-85
2022/01/10 09:47:40;;;;;;;27.45;16.08;;;;;;;;;;5092893;28;20048;-85
2022/01/10 09:50:07;;;;;;;29.58;17.42;;;;;;;;;;5093015;28;20058;-85
2022/01/10 09:52:34;;;;;;;26.45;16.20;;;;;;;;;;5092472;28;20051;-85
2022/01/10 09:55:00;;;;;;;26.83;15.95;;;;;;;;;;5093961;28;20036;-86
2022/01/10 09:57:26;;;;;;;30.90;17.27;;;;;;;;;;5092541;28;20044;-85
2022/01/10 09:59:52;;;;;;;27.27;15.77;;;;;;;;;;5092497;28;20138;-85
2022/01/10 10:02:18;;;;;;;29.30;16.15;;;;;;;;;;5093812;28;20032;-85
2022/01/10 10:04:44;;;;;;;28.92;16.23;;;;;;;;;;5092442;28;20043;-85
2022/01/10 10:07:11;;;;;;;26.45;15.38;;;;;;;;;;5093337;28;20126;-86
2022/01/10 10:09:37;;;;;;;30.95;15.43;;;;;;;;;;5093533;28;20044;-85
2022/01/10 10:12:04;;;;;;;26.83;15.68;;;;;;;;;;5092480;28;20440;-85
2022/01/10 10:14:30;;;;;;;27.70;16.20;;;;;;;;;;5092483;28;20040;-84
2022/01/10 10:16:57;;;;;;;30.42;16.13;;;;;;;;;;5091917;28;20048;-85
2022/01/10 10:19:25;;;;;;;20.27;15.05;;;;;;;;;;5075380;28;20115;-85
2022/01/10 10:21:52;;;;;;;29.25;16.08;;;;;;;;;;5093222;28;20068;-86
2022/01/10 10:24:18;;;;;;;25.70;16.10;;;;;;;;;;5092049;28;20040;-85
2022/01/10 10:26:45;;;;;;;32.33;16.20;;;;;;;;;;5092227;28;20047;-85
2022/01/10 10:29:13;;;;;;;27.67;15.27;;;;;;;;;;5092389;28;20043;-86
2022/01/10 10:31:53;;;;;;;27.25;17.13;;;;;;;;;;5074914;28;20097;-85
2022/01/10 10:34:24;;;;;;;27.52;15.50;;;;;;;;;;5091924;28;20561;-85
2022/01/10 10:37:04;;;;;;;26.45;16.20;;;;;;;;;;5091516;28;20056;-85
2022/01/10 10:39:32;;;;;;;25.27;16.20;;;;;;;;;;5092101;28;20046;-86
2022/01/10 10:41:59;;;;;;;28.63;16.48;;;;;;;;;;5093045;28;20440;-85
2022/01/10 10:44:25;;;;;;;30.23;17.90;;;;;;;;;;5091737;28;20040;-84
2022/01/10 10:46:52;;;;;;;30.67;19.00;;;;;;;;;;5091804;28;20503;-85
2022/01/10 10:49:20;;;;;;;28.38;17.58;;;;;;;;;;5091769;28;20093;-85
2022/01/10 10:51:49;;;;;;;27.65;16.48;;;;;;;;;;5074816;28;20051;-85
2022/01/10 10:54:17;;;;;;;25.08;16.17;;;;;;;;;;5092961;28;20040;-86
2022/01/10 10:56:43;;;;;;;30.50;17.42;;;;;;;;;;5091786;28;20119;-86
2022/01/10 10:59:11;;;;;;;27.00;17.13;;;;;;;;;;5091708;28;20047;-85
2022/01/10 11:01:37;;;;;;;30.60;16.92;;;;;;;;;;5091801;28;20062;-84
2022/01/10 11:04:04;;;;;;;30.23;17.02;;;;;;;;;;5091377;28;20036;-86
2022/01/10 11:06:31;;;;;;;33.35;17.20;;;;;;;;;;5091518;28;20047;-86
2022/01/10 11:08:58;;;;;;;28.15;17.80;;;;;;;;;;5091711;28;20115;-85
2022/01/10 11:11:24;;;;;;;37.25;18.48;;;;;;;;;;5091576;28;20047;-86
2022/01/10 11:13:56;;;;;;;31.08;18.08;;;;;;;;;;5091463;28;20480;-86
2022/01/10 11:16:26;;;;;;;31.42;19.10;;;;;;;;;;5091660;28;20490;-85
2022/01/10 11:18:52;;;;;;;39.95;19.02;;;;;;;;;;5091146;28;20483;-85
2022/01/10 11:21:18;;;;;;;32.13;17.33;;;;;;;;;;5094374;28;20036;-85
2022/01/10 11:23:45;;;;;;;28.85;17.85;;;;;;;;;;5095298;28;20085;-85
2022/01/10 11:26:12;;;;;;;31.27;17.50;;;;;;;;;;5095501;28;20085;-85
2022/01/10 11:28:54;;;;;;;27.65;17.45;;;;;;;;;;5095374;28;20048;-85
2022/01/10 11:31:22;;;;;;;29.25;17.38;;;;;;;;;;5095401;28;20052;-85
2022/01/10 11:33:48;;;;;;;30.38;17.67;;;;;;;;;;5095140;28;20050;-86
2022/01/10 11:36:15;;;;;;;28.10;18.17;;;;;;;;;;5096544;28;20052;-85
2022/01/10 11:38:42;;;;;;;29.55;17.77;;;;;;;;;;5095078;28;20052;-85
2022/01/10 11:41:13;;;;;;;34.33;18.15;;;;;;;;;;5095301;28;20036;-86
2022/01/10 11:43:42;;;;;;;37.15;18.13;;;;;;;;;;5094961;28;20130;-86
2022/01/10 11:46:20;;;;;;;32.75;19.10;;;;;;;;;;5096463;28;20044;-87
2022/01/10 11:48:46;;;;;;;28.45;18.27;;;;;;;;;;5095651;28;20539;-86
2022/01/10 11:51:14;;;;;;;29.45;17.90;;;;;;;;;;5096584;28;20119;-85
2022/01/10 11:53:47;;;;;;;29.63;17.35;;;;;;;;;;5095027;28;20490;-86
2022/01/10 11:56:33;;;;;;;32.33;17.42;;;;;;;;;;5094886;28;20051;-85
2022/01/10 11:59:08;;;;;;;36.78;17.90;;;;;;;;;;5094748;28;20525;-85
2022/01/10 12:01:35;;;;;;;32.20;17.58;;;;;;;;;;5095207;28;20044;-85
2022/01/10 12:04:01;;;;;;;28.98;17.48;;;;;;;;;;5094587;28;20036;-86
2022/01/10 12:06:27;;;;;;;33.30;19.13;;;;;;;;;;5094766;28;20048;-85
2022/01/10 12:08:57;;;;;;;30.27;18.98;;;;;;;;;;5094436;28;20046;-86
2022/01/10 12:11:24;;;;;;;35.42;18.13;;;;;;;;;;5095024;28;20044;-85
2022/01/10 12:13:54;;;;;;;28.52;18.17;;;;;;;;;;5094653;28;20044;-85
2022/01/10 12:16:20;;;;;;;35.15;19.45;;;;;;;;;;5096006;28;20044;-85
2022/01/10 12:18:46;;;;;;;35.72;18.58;;;;;;;;;;5094383;28;20040;-85
2022/01/10 12:21:13;;;;;;;30.33;17.38;;;;;;;;;;5094607;28;20047;-85
2022/01/10 12:23:39;;;;;;;42.50;18.63;;;;;;;;;;5094207;28;20040;-86
2022/01/10 12:26:05;;;;;;;33.58;19.05;;;;;;;;;;5094431;28;20044;-86
2022/01/10 12:28:32;;;;;;;34.17;17.90;;;;;;;;;;5094126;28;20414;-85
2022/01/10 12:31:02;;;;;;;32.72;19.85;;;;;;;;;;5094317;28;20040;-85
2022/01/10 12:33:28;;;;;;;35.00;19.27;;;;;;;;;;5093076;28;20051;-85
2022/01/10 12:35:54;;;;;;;35.40;20.55;;;;;;;;;;5094079;28;20119;-85
2022/01/10 12:38:21;;;;;;;35.35;19.55;;;;;;;;;;5093895;28;20048;-84
2022/01/10 12:40:49;;;;;;;35.97;19.83;;;;;;;;;;5094363;28;20044;-85
2022/01/10 12:43:15;;;;;;;35.50;18.27;;;;;;;;;;5094151;28;20494;-85
2022/01/10 12:45:41;;;;;;;33.03;19.52;;;;;;;;;;5094097;28;20040;-86
2022/01/10 12:48:09;;;;;;;32.22;19.15;;;;;;;;;;5093794;28;20044;-85
2022/01/10 12:50:35;;;;;;;30.42;17.33;;;;;;;;;;5094351;28;20044;-85
2022/01/10 12:53:01;;;;;;;35.90;18.55;;;;;;;;;;5093544;28;20066;-85
2022/01/10 12:55:27;;;;;;;34.72;17.08;;;;;;;;;;5093809;28;20105;-85
2022/01/10 12:57:53;;;;;;;30.05;17.52;;;;;;;;;;5093700;28;20044;-85
2022/01/10 13:00:19;;;;;;;31.55;18.75;;;;;;;;;;5076832;28;20044;-85
2022/01/10 13:02:47;;;;;;;28.98;18.33;;;;;;;;;;5095150;28;20407;-85
2022/01/10 13:05:14;;;;;;;27.58;17.38;;;;;;;;;;5093425;28;20055;-85
2022/01/10 13:07:41;;;;;;;27.27;17.40;;;;;;;;;;5093554;28;20055;-85
2022/01/10 13:10:11;;;;;;;35.05;19.33;;;;;;;;;;5093577;28;20075;-85
2022/01/10 13:12:37;;;;;;;39.65;19.35;;;;;;;;;;5076667;28;20044;-85
2022/01/10 13:15:08;;;;;;;31.42;18.05;;;;;;;;;;5093166;28;20047;-85
2022/01/10 13:17:34;;;;;;;28.35;17.20;;;;;;;;;;5093340;28;20055;-85
2022/01/10 13:20:02;;;;;;;28.17;16.23;;;;;;;;;;5093378;28;20114;-85
2022/01/10 13:22:33;;;;;;;27.90;16.85;;;;;;;;;;5093273;28;20036;-86
2022/01/10 13:25:00;;;;;;;28.58;14.25;;;;;;;;;;5094274;28;20078;-85
2022/01/10 13:27:33;;;;;;;27.40;16.52;;;;;;;;;;5093219;28;20070;-85
2022/01/10 13:30:11;;;;;;;25.10;14.25;;;;;;;;;;5093007;28;20123;-85
2022/01/10 13:32:37;;;;;;;33.53;14.75;;;;;;;;;;5093239;28;20371;-85
2022/01/10 13:35:04;;;;;;;28.50;15.10;;;;;;;;;;5092890;28;20530;-85
2022/01/10 13:37:34;;;;;;;29.00;15.32;;;;;;;;;;5076026;28;20060;-84
2022/01/10 13:40:00;;;;;;;30.63;15.77;;;;;;;;;;5092714;28;20109;-85
2022/01/10 13:42:26;;;;;;;28.52;15.27;;;;;;;;;;5102728;28;20035;-86
2022/01/10 13:44:55;;;;;;;26.92;14.90;;;;;;;;;;5097732;28;20114;-85
2022/01/10 13:47:21;;;;;;;34.00;14.73;;;;;;;;;;5094490;28;20123;-85
2022/01/10 13:49:48;;;;;;;30.42;16.45;;;;;;;;;;5092628;28;20483;-86
2022/01/10 13:52:15;;;;;;;28.75;15.25;;;;;;;;;;5093145;28;20051;-85
2022/01/10 13:54:41;;;;;;;24.55;13.75;;;;;;;;;;5092398;28;20491;-85
2022/01/10 13:57:14;;;;;;;22.88;14.40;;;;;;;;;;5093749;28;20044;-85
2022/01/10 13:59:40;;;;;;;31.65;14.95;;;;;;;;;;5075850;28;20561;-85
2022/01/10 14:02:06;;;;;;;30.02;14.95;;;;;;;;;;5092578;28;20043;-86
2022/01/10 14:04:34;;;;;;;23.40;12.50;;;;;;;;;;5092477;28;20047;-85
2022/01/10 14:07:01;;;;;;;24.75;12.90;;;;;;;;;;5075565;28;20488;-85
2022/01/10 14:09:29;;;;;;;29.30;13.23;;;;;;;;;;5092402;28;20051;-85
2022/01/10 14:11:55;;;;;;;23.50;11.75;;;;;;;;;;5092551;28;20054;-85
2022/01/10 14:14:21;;;;;;;23.80;11.73;;;;;;;;;;5093454;28;20391;-86
2022/01/10 14:16:55;;;;;;;25.70;11.65;;;;;;;;;;5092418;28;20047;-85
2022/01/10 14:19:21;;;;;;;26.52;11.50;;;;;;;;;;5075051;28;20039;-85
2022/01/10 14:21:48;;;;;;;22.48;11.00;;;;;;;;;;5092193;28;20044;-85
2022/01/10 14:24:17;;;;;;;28.55;13.43;;;;;;;;;;5091719;28;20044;-85
2022/01/10 14:26:43;;;;;;;24.10;14.38;;;;;;;;;;5093615;28;20051;-85
2022/01/10 14:29:10;;;;;;;32.47;17.25;;;;;;;;;;5091839;28;20048;-85
2022/01/10 14:31:36;;;;;;;23.30;14.43;;;;;;;;;;5092130;28;20075;-85
2022/01/10 14:34:02;;;;;;;22.00;14.40;;;;;;;;;;5091659;28;20067;-85
2022/01/10 14:36:29;;;;;;;26.08;15.80;;;;;;;;;;5091926;28;20055;-85